Capitol Logistics 223


KSEA
Seattle-Tacoma International Airport
Seattle, Washington, US
KRIV
March Air Reserve Base
Riverside, California, US

Activity Log

Date Flight Route Aircraft Duration
No Flights Yet

Route Details

Aircraft Information
Primary: Boeing 767-300BDSF
Backup: Not Available
Route Data
Distance: 833nm
Sched. Duration: 2h 10m
Avg. Duration: 0h 00m (-211m)
Times Flown: 0
Recm'd Route: SUMMA1 SUMMA JINMO Q7 JAGWA LANDO PMD MARCH4
Planned Altitude: 35,000ft
Origin Wx: KSEA 231253Z 15006KT 10SM -RA OVC037 07/03 A2985 RMK AO2 RAE00B35 SLP116 P0000 T00670028
Dest. Wx: KRIV 231310Z AUTO 08003KT 10SM SCT007 BKN015 OVC034 10/08 A3019 RMK AO2 RAE03DZB03E10 CIG 007V015 CIG 013 RWY14 SLP224
Notes:

Financial History
Total Freight: 0lbs
Average Load: 0lbs/flt
Fuel Used: 0lbs
Avg. Fuel Used: 0lbs/flt
Fuel Expense: $0
Avg. Fuel Expense: $0
Avg. Fuel Cost: $0/lbs
Total Gross Income: $0
Pilot Pay: $0
Total Expenses: $0
Total Revenue: $0
Average Revenue: $0